Page Field Fort Myers US
ICAO: KFMY
IATA: FMY
Category: Medium
Scheduled Services: No

Elevation: 17 ft
TransAlt. 18000 ft.

Airport Communications:
FORT MYERS APP/DEP:126.8
ATIS:123.725
CLNC DEL:121.7
CTAF:119
GND:121.7
MIAMI RDO:122.2
TWR:119
UNICOM:130.55

KFMY Zoom In..

Runways:

(A) RW 05 length 6406 ft width 150 ft
ILS 110.70 / hdg 51

(B) RW 13 length 4912 ft width 150 ft
---- / hdg 133

(C) RW 23 length 6406 ft width 150 ft
---- / hdg 231

(D) RW 31 length 4912 ft width 150 ft
---- / hdg 313

Location; KFMY
Day. 20 / Time. 17.11 Zulu
* Altimeter: 30.04
* Temperature: 27° c. 80.6°f.
* Wind from: 140° Speed 11 kn.
Dewpoint: 23° c.
Visibility: 10 Statute Miles.
Clouds: Scattered 1800 ft.
Clouds: Broken 4000 ft.
Clouds: Overcast 7000 ft.

KFMY 201711Z 14011KT 10SM SCT018 BKN040 OVC070 27/23 A3004 RMK AO2 T02720228


Wind From 140°
Speed 11 kn.

 
 
jpsmedia.com for Web Design SOUNDCLOUD worldairports.se 2018   terms of use